Terminal Aerodrome Forecast
Issued by NWS Boston, MA

Home | Current Version | Previous Version | Text Only | Print | Product List | Glossary On
Versions: 1 2 3 4 5 6 7 8 9 10 11 12 13 14 15 16 17 18 19 20 21
000
FTUS41 KBOX 240538
TAFORH
TAF
KORH 240538Z 2406/2506 36010G17KT 6SM BR VCSH OVC009
     FM241500 33008KT P6SM OVC012
     FM242100 32008KT P6SM BKN050
     FM250500 30006KT P6SM SCT250=

USA.gov is the U.S. government's official web portal to all federal, state and local government web resources and services.